Latest Weather Observations for Marble Bar

IDW60801

Issued at 5:05 pm WST Sunday 26 October 2014 (issued every 30 minutes, with the page automatically refreshed every 10 minutes)

About weather observations | Map of weather stations | Latest weather observations for WA | Other Formats
Station Details ID: 004106 Name: MARBLE BAR Lat: -21.18 Lon: 119.75 Height: 182.3 m
Data from the previous 72 hours. | See also: Recent months at Marble Bar
Date/Time
WST
Temp
°C
App
Temp
°C
Dew
Point
Rel
Hum
%
Delta-T
°C
Wind Press
QNH
hPa
Press
MSL
hPa
Rain
since 9 am
mm
Dir
 
Spd
km/h
Gust
km/h
Spd
kts
Gust
kts
26/05:00pm 41.3 38.0 -1.4 7 21.6 S 6 11 3 6 1009.6 1008.4 0.0
26/04:30pm 41.7 38.2 -1.1 7 21.8 SSE 7 20 4 11 1009.5 1008.3 0.0
26/04:00pm 41.3 38.7 -1.4 7 21.6 SSE 2 11 1 6 1009.4 1008.2 0.0
26/03:30pm 41.7 37.5 -1.1 7 21.8 SE 11 22 6 12 1009.5 1008.3 0.0
26/03:00pm 41.2 36.9 -1.4 7 21.6 E 11 17 6 9 1009.5 1008.3 0.0
26/02:30pm 42.3 38.9 -0.6 7 22.1 S 7 13 4 7 1009.9 1008.7 0.0
26/02:00pm 42.1 38.9 -0.8 7 22.0 SW 6 11 3 6 1010.2 1009.0 0.0
26/01:30pm 41.0 37.1 -1.6 7 21.5 SE 9 17 5 9 1010.7 1009.5 0.0
26/01:00pm 41.1 37.8 -1.5 7 21.5 SSE 6 15 3 8 1011.1 1009.9 0.0
26/12:30pm 40.9 35.8 -1.6 7 21.4 ESE 15 24 8 13 1011.7 1010.5 0.0
26/12:00pm 40.9 36.2 -1.6 7 21.4 SE 13 22 7 12 1012.2 1010.9 0.0
26/11:30am 39.9 34.7 -2.4 7 20.9 SSE 15 20 8 11 1012.9 1011.6 0.0
26/11:00am 40.1 34.2 -2.2 7 21.0 SE 19 35 10 19 1013.2 1011.9 0.0
26/10:30am 39.3 33.1 -2.8 7 20.6 SE 20 35 11 19 1013.6 1012.3 0.0
26/10:00am 38.1 31.7 -1.9 8 19.7 SSE 22 32 12 17 1014.0 1012.7 0.0
26/09:30am 37.6 31.1 -2.2 8 19.5 SSE 22 33 12 18 1014.1 1012.8 0.0
26/09:00am 36.9 31.0 -1.1 9 18.8 SE 20 30 11 16 1014.2 1013.0 0.0
26/08:30am 35.9 30.2 -0.5 10 18.1 SE 19 26 10 14 1014.3 1013.1 0.0
26/08:00am 34.0 28.7 1.7 13 16.4 SE 19 28 10 15 1014.3 1013.1 0.0
26/07:30am 32.9 28.2 0.9 13 15.9 SSE 15 22 8 12 1014.0 1012.7 0.0
26/07:00am 31.7 27.2 1.9 15 15.0 SSE 15 22 8 12 1013.8 1012.5 0.0
26/06:30am 30.6 27.0 2.8 17 14.1 SE 11 15 6 8 1013.8 1012.5 0.0
26/06:00am 29.3 25.9 4.0 20 13.0 SSE 11 15 6 8 1013.3 1012.0 0.0
26/05:30am 27.7 25.6 6.5 26 11.3 SSE 7 13 4 7 1013.0 1011.7 0.0
26/05:00am 27.4 25.6 9.3 32 10.1 S 9 11 5 6 1012.9 1011.6 0.0
26/04:30am 27.1 25.5 10.3 35 9.5 SSE 9 13 5 7 1012.6 1011.3 0.0
26/04:00am 26.0 26.5 14.1 47 7.1 S 4 6 2 3 1012.3 1011.0 0.0
26/03:30am 26.5 27.3 13.6 45 7.7 SSE 2 4 1 2 1012.1 1010.8 0.0
26/03:00am 27.4 27.6 14.1 44 8.0 SSE 6 6 3 3 1012.1 1010.8 0.0
26/02:30am 28.2 28.7 14.1 42 8.5 SE 4 6 2 3 1012.1 1010.8 0.0
26/02:00am 29.4 28.6 14.0 39 9.3 SSE 11 15 6 8 1012.1 1010.8 0.0
26/01:30am 29.6 28.1 14.2 39 9.4 S 15 20 8 11 1012.1 1010.8 0.0
26/01:00am 29.7 29.9 16.8 45 8.2 S 11 17 6 9 1012.1 1010.8 0.0
26/12:30am 28.2 29.2 16.8 50 7.2 S 7 11 4 6 1012.3 1011.0 0.0
26/12:00am 28.2 29.8 16.8 50 7.2 S 4 6 2 3 1012.4 1011.1 0.0
 
Date/Time
WST
Temp
°C
App
Temp
°C
Dew
Point
Rel
Hum
%
Delta-T
°C
Wind Press
QNH
hPa
Press
MSL
hPa
Rain
since 9 am
mm
Dir
 
Spd
km/h
Gust
km/h
Spd
kts
Gust
kts
25/11:30pm 29.1 31.3 16.6 46 7.9 CALM 0 2 0 1 1012.8 1011.5 0.0
25/11:00pm 30.0 31.8 17.5 47 8.0 N 4 6 2 3 1012.9 1011.6 0.0
25/10:30pm 30.8 31.7 17.5 45 8.5 N 9 15 5 8 1013.2 1011.9 0.0
25/10:00pm 31.6 30.9 16.4 40 9.6 N 15 20 8 11 1013.6 1012.3 0.0
25/09:30pm 32.0 31.0 15.5 37 10.3 NNE 15 22 8 12 1013.7 1012.4 0.0
25/09:00pm 31.2 28.8 13.9 35 10.5 ENE 19 28 10 15 1014.1 1012.8 0.0
25/08:30pm 32.5 29.2 14.1 32 11.3 ENE 24 39 13 21 1014.2 1013.0 0.0
25/08:00pm 33.5 29.5 11.9 27 12.9 ENE 24 33 13 18 1014.0 1012.7 0.0
25/07:30pm 33.7 32.0 14.7 32 11.8 NNW 17 24 9 13 1012.0 1010.7 0.0
25/07:00pm 34.6 32.4 16.0 33 11.8 WNW 22 33 12 18 1011.3 1010.1 0.0
25/06:30pm 35.8 33.6 17.0 32 12.1 WNW 24 37 13 20 1011.1 1009.9 0.0
25/06:00pm 37.5 36.5 18.0 31 12.8 W 20 35 11 19 1010.6 1009.4 0.0
25/05:52pm 38.1 35.2 17.0 29 13.7 NW 28 43 15 23 1010.2 1009.0 0.0
25/05:30pm 40.5 37.2 -0.1 8 20.9 SSW 7 9 4 5 1010.1 1008.9 0.0
25/05:00pm 41.5 38.5 0.6 8 21.4 SSW 6 9 3 5 1009.7 1008.5 0.0
25/04:30pm 41.8 38.2 0.8 8 21.5 SW 9 19 5 10 1009.4 1008.2 0.0
25/04:00pm 42.3 39.4 1.2 8 21.8 N 6 9 3 5 1009.5 1008.3 0.0
25/03:30pm 41.6 38.6 0.7 8 21.4 W 6 9 3 5 1009.6 1008.4 0.0
25/03:00pm 42.0 38.5 1.0 8 21.6 SW 9 19 5 10 1009.8 1008.6 0.0
25/02:30pm 42.3 39.4 1.2 8 21.7 SSE 6 13 3 7 1010.0 1008.8 0.0
25/02:00pm 42.5 39.4 1.3 8 21.9 SSW 7 17 4 9 1010.5 1009.3 0.0
25/01:30pm 42.1 38.6 1.1 8 21.6 SW 9 17 5 9 1010.7 1009.5 0.0
25/01:00pm 42.0 38.1 1.0 8 21.6 SSW 11 20 6 11 1011.1 1009.9 0.0
25/12:30pm 42.3 38.4 1.2 8 21.7 SW 11 19 6 10 1011.5 1010.3 0.0
25/12:00pm 41.8 38.2 0.8 8 21.5 SSE 9 22 5 12 1012.0 1010.7 0.0
25/11:30am 41.0 37.6 1.9 9 20.8 SSE 9 32 5 17 1012.5 1011.2 0.0
25/11:00am 40.5 36.7 1.5 9 20.5 SSE 11 20 6 11 1013.1 1011.8 0.0
25/10:30am 39.6 34.5 0.9 9 20.1 SE 17 32 9 17 1013.4 1012.1 0.0
25/10:00am 37.9 34.6 4.7 13 18.1 SSE 11 19 6 10 1013.8 1012.5 0.0
25/09:30am 36.5 34.8 9.9 20 15.6 SSE 9 17 5 9 1014.1 1012.8 0.0
25/09:00am 35.1 32.6 10.9 23 14.3 SSE 15 22 8 12 1014.4 1013.2 0.0
25/08:30am 32.0 33.8 18.2 43 9.0 SSE 6 11 3 6 1014.5 1013.3 0.0
25/08:00am 28.8 31.2 19.7 58 6.0 E 6 7 3 4 1014.6 1013.4 0.0
25/07:30am 27.6 31.0 20.2 64 4.9 E 2 4 1 2 1014.4 1013.2 0.0
25/07:00am 26.1 29.7 21.3 75 3.2 ESE 4 7 2 4 1014.1 1012.8 0.0
25/06:30am 24.9 27.9 20.8 78 2.7 ESE 6 7 3 4 1013.9 1012.6 0.0
25/06:00am 23.0 25.2 19.2 79 2.4 SE 6 7 3 4 1013.7 1012.4 0.0
25/05:30am 22.1 24.1 17.9 77 2.6 SE 4 6 2 3 1013.6 1012.3 0.0
25/05:00am 22.7 25.5 18.0 75 3.0 CALM 0 4 0 2 1013.3 1012.0 0.0
25/04:30am 23.6 26.4 19.7 79 2.5 ENE 4 6 2 3 1012.8 1011.5 0.0
25/04:00am 23.9 25.7 18.3 71 3.6 ENE 6 7 3 4 1012.8 1011.5 0.0
25/03:30am 23.6 25.6 16.9 66 4.2 E 2 4 1 2 1012.5 1011.2 0.0
25/03:00am 23.8 26.2 17.1 66 4.2 CALM 0 0 0 0 1012.3 1011.0 0.0
25/02:30am 24.1 26.2 17.1 65 4.4 ESE 2 6 1 3 1012.2 1010.9 0.0
25/02:00am 24.4 26.6 17.4 65 4.4 SE 2 6 1 3 1012.2 1010.9 0.0
25/01:30am 24.4 26.8 16.9 63 4.7 CALM 0 0 0 0 1012.1 1010.8 0.0
25/01:00am 24.9 27.5 17.6 64 4.6 CALM 0 0 0 0 1012.2 1010.9 0.0
25/12:30am 25.4 27.9 17.3 61 5.1 CALM 0 4 0 2 1012.5 1011.2 0.0
25/12:00am 26.0 27.6 17.9 61 5.1 NNE 6 7 3 4 1012.5 1011.2 0.0
 
Date/Time
WST
Temp
°C
App
Temp
°C
Dew
Point
Rel
Hum
%
Delta-T
°C
Wind Press
QNH
hPa
Press
MSL
hPa
Rain
since 9 am
mm
Dir
 
Spd
km/h
Gust
km/h
Spd
kts
Gust
kts
24/11:30pm 26.2 27.6 17.3 58 5.6 N 6 7 3 4 1012.7 1011.4 0.0
24/11:00pm 27.3 28.6 17.5 55 6.2 N 7 11 4 6 1013.0 1011.7 0.0
24/10:30pm 27.9 27.9 17.1 51 6.8 W 13 20 7 11 1013.2 1011.9 0.0
24/10:00pm 28.4 27.9 16.0 47 7.7 NW 13 15 7 8 1013.1 1011.8 0.0
24/09:30pm 28.9 28.7 15.8 45 8.1 NW 11 19 6 10 1013.1 1011.8 0.0
24/09:00pm 29.9 27.7 14.4 38 9.5 WNW 19 28 10 15 1012.8 1011.5 0.0
24/08:30pm 30.7 29.1 13.9 36 10.2 N 15 20 8 11 1012.4 1011.1 0.0
24/08:00pm 31.4 29.6 13.2 33 11.0 N 15 22 8 12 1012.1 1010.8 0.0
24/07:30pm 32.3 29.9 12.5 30 11.8 WNW 17 28 9 15 1011.5 1010.3 0.0
24/07:00pm 32.8 29.8 11.9 28 12.4 NNW 19 32 10 17 1010.7 1009.5 0.0
24/06:30pm 34.1 30.7 12.4 26 13.1 NNW 22 33 12 18 1010.4 1009.2 0.0
24/06:00pm 35.4 32.1 11.7 23 14.2 NNW 20 32 11 17 1009.8 1008.6 0.0
24/05:30pm 36.7 32.1 12.2 23 14.8 NNW 28 41 15 22 1009.2 1007.9 0.0
24/05:00pm 38.5 35.2 15.0 25 14.9 N 26 37 14 20 1008.6 1007.3 0.0
24/04:55pm 38.3 34.8 15.4 25 14.6 N 28 37 15 20 1008.5 1007.2 0.0
24/04:30pm 40.5 37.7 3.0 10 20.2 W 7 15 4 8 1008.2 1006.9 0.0
24/04:00pm 41.4 38.4 2.2 9 21.0 WNW 7 17 4 9 1008.3 1007.0 0.0
24/03:30pm 41.1 37.0 2.0 9 20.8 NNW 13 24 7 13 1008.5 1007.2 0.0
24/03:00pm 40.6 36.3 3.1 10 20.3 NNW 15 24 8 13 1008.6 1007.3 0.0
24/02:30pm 41.9 38.2 2.6 9 21.2 WNW 11 15 6 8 1008.9 1007.6 0.0
24/02:00pm 42.1 37.6 4.2 10 21.0 N 17 24 9 13 1009.2 1007.9 0.0
24/01:30pm 40.5 37.3 6.7 13 19.2 N 13 28 7 15 1009.6 1008.4 0.0
24/01:00pm 41.0 38.1 4.7 11 20.1 NW 9 15 5 8 1010.0 1008.8 0.0
24/12:30pm 40.1 38.2 7.5 14 18.7 E 7 15 4 8 1010.4 1009.2 0.0
24/12:00pm 39.6 37.8 8.1 15 18.2 ENE 7 17 4 9 1010.8 1009.6 0.0
24/11:30am 38.6 37.1 9.2 17 17.2 NE 7 15 4 8 1011.2 1010.0 0.0
24/11:00am 38.3 37.2 10.6 19 16.5 NE 7 13 4 7 1011.5 1010.3 0.0
24/10:30am 37.2 36.8 11.2 21 15.6 SSW 4 11 2 6 1012.1 1010.8 0.0
24/10:00am 35.3 34.7 11.7 24 14.1 ENE 6 11 3 6 1012.4 1011.1 0.0
24/09:30am 34.0 33.4 12.4 27 13.0 E 7 11 4 6 1012.8 1011.5 0.0
24/09:00am 32.8 33.5 14.4 33 11.3 E 4 9 2 5 1013.0 1011.7 0.0
24/08:30am 31.4 31.7 14.5 35 10.4 E 6 9 3 5 1013.0 1011.7 0.0
24/08:00am 29.8 30.4 15.9 43 8.7 ENE 7 11 4 6 1013.0 1011.7 0.0
24/07:30am 28.2 28.7 15.1 44 8.0 ENE 6 7 3 4 1013.0 1011.7 0.0
24/07:00am 27.2 28.4 14.9 47 7.5 E 2 4 1 2 1012.7 1011.4 0.0
24/06:30am 25.3 26.7 14.4 50 6.5 CALM 0 0 0 0 1012.6 1011.3 0.0
24/06:00am 23.7 24.7 14.4 56 5.5 ENE 2 6 1 3 1012.3 1011.0 0.0
24/05:30am 22.3 22.7 12.5 53 5.6 ESE 2 6 1 3 1011.8 1010.6 0.0
24/05:00am 22.5 23.2 12.2 52 5.9 CALM 0 0 0 0 1011.6 1010.4 0.0
24/04:30am 22.7 23.4 12.3 52 5.9 CALM 0 6 0 3 1011.5 1010.3 0.0
24/04:00am 23.2 23.5 12.2 50 6.3 SE 2 6 1 3 1011.2 1010.0 0.0
24/03:30am 23.6 23.7 12.6 50 6.4 SSE 4 4 2 2 1011.1 1009.9 0.0
24/03:00am 23.7 24.3 12.0 48 6.7 CALM 0 0 0 0 1010.9 1009.7 0.0
24/02:30am 24.2 24.1 12.2 47 6.9 SSE 4 7 2 4 1011.2 1010.0 0.0
24/02:00am 24.8 25.3 12.7 47 7.0 N 2 4 1 2 1011.1 1009.9 0.0
24/01:30am 25.8 25.9 12.6 44 7.7 ENE 4 6 2 3 1011.0 1009.8 0.0
24/01:00am 26.6 26.7 12.6 42 8.2 NE 4 6 2 3 1011.2 1010.0 0.0
24/12:30am 27.2 27.1 12.0 38 8.8 ENE 4 6 2 3 1011.6 1010.4 0.0
24/12:00am 28.0 28.0 12.4 38 9.2 ENE 4 7 2 4 1012.0 1010.7 0.0
 
Date/Time
WST
Temp
°C
App
Temp
°C
Dew
Point
Rel
Hum
%
Delta-T
°C
Wind Press
QNH
hPa
Press
MSL
hPa
Rain
since 9 am
mm
Dir
 
Spd
km/h
Gust
km/h
Spd
kts
Gust
kts
23/11:30pm 28.6 28.3 11.6 34 9.9 NE 4 6 2 3 1012.4 1011.1 0.0
23/11:00pm 29.4 27.9 11.9 34 10.3 N 11 19 6 10 1012.5 1011.2 0.0
23/10:30pm 29.9 28.7 12.8 35 10.2 NNE 11 17 6 9 1012.8 1011.5 0.0
23/10:00pm 29.8 28.8 13.5 36 9.8 N 11 19 6 10 1012.6 1011.3 0.0
23/09:30pm 30.2 29.2 13.5 36 10.1 N 11 17 6 9 1012.5 1011.2 0.0
23/09:00pm 30.6 29.5 13.0 34 10.5 N 11 15 6 8 1012.5 1011.2 0.0
23/08:30pm 31.8 30.3 13.1 32 11.3 NNE 13 24 7 13 1012.0 1010.7 0.0
23/08:00pm 31.9 29.2 0.1 13 15.6 N 4 7 2 4 1010.8 1009.6 0.0
23/07:30pm 32.2 29.9 0.3 13 15.7 ESE 2 6 1 3 1010.4 1009.2 0.0
23/07:00pm 33.2 30.3 -1.2 11 16.6 ESE 4 6 2 3 1010.1 1008.9 0.0
23/06:30pm 35.2 32.3 -1.0 10 17.8 E 4 4 2 2 1009.9 1008.7 0.0
23/06:00pm 37.1 33.1 -2.6 8 19.2 E 9 11 5 6 1009.6 1008.4 0.0
23/05:30pm 38.6 34.3 -1.5 8 19.9 E 11 17 6 9 1009.4 1008.2 0.0

Other Formats:

Comma delimited format used in spreadsheet applications
http://www.bom.gov.au/fwo/IDW60801/IDW60801.95317.axf

JavaScript Object Notation format (JSON) in row-major order
http://www.bom.gov.au/fwo/IDW60801/IDW60801.95317.json